sensor_id;sensor_type;location;lat;lon;timestamp;P1;durP1;ratioP1;P2;durP2;ratioP2
66946;SDS011;53853;51.982;5.928;2023-04-25T00:02:05;10.07;;;3.40;;
66946;SDS011;53853;51.982;5.928;2023-04-25T00:04:35;11.40;;;4.00;;
66946;SDS011;53853;51.982;5.928;2023-04-25T00:07:05;9.68;;;3.78;;
66946;SDS011;53853;51.982;5.928;2023-04-25T00:09:38;8.13;;;2.85;;
66946;SDS011;53853;51.982;5.928;2023-04-25T00:12:07;9.63;;;2.75;;
66946;SDS011;53853;51.982;5.928;2023-04-25T00:14:37;20.10;;;4.78;;
66946;SDS011;53853;51.982;5.928;2023-04-25T00:17:07;8.07;;;3.50;;
66946;SDS011;53853;51.982;5.928;2023-04-25T00:19:37;7.45;;;3.00;;
66946;SDS011;53853;51.982;5.928;2023-04-25T00:22:07;8.52;;;2.92;;
66946;SDS011;53853;51.982;5.928;2023-04-25T00:24:40;6.38;;;2.80;;
66946;SDS011;53853;51.982;5.928;2023-04-25T00:27:10;10.00;;;3.67;;
66946;SDS011;53853;51.982;5.928;2023-04-25T00:29:40;7.50;;;3.05;;
66946;SDS011;53853;51.982;5.928;2023-04-25T00:32:10;13.27;;;3.97;;
66946;SDS011;53853;51.982;5.928;2023-04-25T00:34:40;10.10;;;3.75;;
66946;SDS011;53853;51.982;5.928;2023-04-25T00:37:10;12.13;;;4.35;;
66946;SDS011;53853;51.982;5.928;2023-04-25T00:39:42;10.60;;;3.03;;
66946;SDS011;53853;51.982;5.928;2023-04-25T00:42:12;9.85;;;3.15;;
66946;SDS011;53853;51.982;5.928;2023-04-25T00:44:42;8.15;;;3.70;;
66946;SDS011;53853;51.982;5.928;2023-04-25T00:47:13;9.77;;;3.70;;
66946;SDS011;53853;51.982;5.928;2023-04-25T00:49:44;9.00;;;3.25;;
66946;SDS011;53853;51.982;5.928;2023-04-25T00:52:14;6.55;;;3.17;;
66946;SDS011;53853;51.982;5.928;2023-04-25T00:54:47;10.23;;;3.42;;
66946;SDS011;53853;51.982;5.928;2023-04-25T00:57:17;13.27;;;4.75;;
66946;SDS011;53853;51.982;5.928;2023-04-25T00:59:47;15.65;;;5.03;;
66946;SDS011;53853;51.982;5.928;2023-04-25T01:02:19;10.10;;;4.50;;
66946;SDS011;53853;51.982;5.928;2023-04-25T01:04:49;10.90;;;4.22;;
66946;SDS011;53853;51.982;5.928;2023-04-25T01:07:19;13.13;;;3.72;;
66946;SDS011;53853;51.982;5.928;2023-04-25T01:09:52;10.38;;;4.00;;
66946;SDS011;53853;51.982;5.928;2023-04-25T01:12:22;16.23;;;5.13;;
66946;SDS011;53853;51.982;5.928;2023-04-25T01:14:53;16.88;;;4.90;;
66946;SDS011;53853;51.982;5.928;2023-04-25T01:17:23;11.70;;;4.05;;
66946;SDS011;53853;51.982;5.928;2023-04-25T01:19:53;10.23;;;3.97;;
66946;SDS011;53853;51.982;5.928;2023-04-25T01:22:26;14.43;;;3.92;;
66946;SDS011;53853;51.982;5.928;2023-04-25T01:24:56;16.35;;;5.82;;
66946;SDS011;53853;51.982;5.928;2023-04-25T01:27:27;13.07;;;4.45;;
66946;SDS011;53853;51.982;5.928;2023-04-25T01:29:57;13.63;;;4.22;;
66946;SDS011;53853;51.982;5.928;2023-04-25T01:32:28;13.75;;;4.85;;
66946;SDS011;53853;51.982;5.928;2023-04-25T01:35:04;13.07;;;3.90;;
66946;SDS011;53853;51.982;5.928;2023-04-25T01:37:38;8.77;;;4.25;;
66946;SDS011;53853;51.982;5.928;2023-04-25T01:40:11;12.45;;;5.53;;
66946;SDS011;53853;51.982;5.928;2023-04-25T01:42:42;12.18;;;4.25;;
66946;SDS011;53853;51.982;5.928;2023-04-25T01:45:13;13.05;;;4.60;;
66946;SDS011;53853;51.982;5.928;2023-04-25T01:47:44;12.00;;;3.70;;
66946;SDS011;53853;51.982;5.928;2023-04-25T01:50:16;10.05;;;4.07;;
66946;SDS011;53853;51.982;5.928;2023-04-25T01:52:50;11.10;;;4.22;;
66946;SDS011;53853;51.982;5.928;2023-04-25T01:55:20;15.60;;;4.63;;
66946;SDS011;53853;51.982;5.928;2023-04-25T01:57:59;11.70;;;4.25;;
66946;SDS011;53853;51.982;5.928;2023-04-25T02:00:56;16.35;;;4.85;;
66946;SDS011;53853;51.982;5.928;2023-04-25T02:03:32;13.45;;;4.45;;
66946;SDS011;53853;51.982;5.928;2023-04-25T02:06:06;13.32;;;4.00;;
66946;SDS011;53853;51.982;5.928;2023-04-25T02:08:43;16.23;;;5.70;;
66946;SDS011;53853;51.982;5.928;2023-04-25T02:11:13;13.50;;;4.27;;
66946;SDS011;53853;51.982;5.928;2023-04-25T02:13:51;14.85;;;4.32;;
66946;SDS011;53853;51.982;5.928;2023-04-25T02:16:42;8.50;;;3.67;;
66946;SDS011;53853;51.982;5.928;2023-04-25T02:19:12;10.70;;;3.78;;
66946;SDS011;53853;51.982;5.928;2023-04-25T02:21:42;10.13;;;3.78;;
66946;SDS011;53853;51.982;5.928;2023-04-25T02:24:14;11.73;;;4.25;;
66946;SDS011;53853;51.982;5.928;2023-04-25T02:26:44;11.60;;;4.75;;
66946;SDS011;53853;51.982;5.928;2023-04-25T02:29:15;24.65;;;5.65;;
66946;SDS011;53853;51.982;5.928;2023-04-25T02:31:45;10.82;;;3.65;;
66946;SDS011;53853;51.982;5.928;2023-04-25T02:34:16;13.25;;;5.63;;
66946;SDS011;53853;51.982;5.928;2023-04-25T02:36:47;10.43;;;3.50;;
66946;SDS011;53853;51.982;5.928;2023-04-25T02:39:20;11.85;;;4.22;;
66946;SDS011;53853;51.982;5.928;2023-04-25T02:41:51;15.63;;;4.28;;
66946;SDS011;53853;51.982;5.928;2023-04-25T02:44:21;13.85;;;4.68;;
66946;SDS011;53853;51.982;5.928;2023-04-25T02:46:51;10.40;;;4.75;;
66946;SDS011;53853;51.982;5.928;2023-04-25T02:49:23;22.23;;;5.55;;
66946;SDS011;53853;51.982;5.928;2023-04-25T02:51:53;13.07;;;4.13;;
66946;SDS011;53853;51.982;5.928;2023-04-25T02:54:25;14.38;;;3.90;;
66946;SDS011;53853;51.982;5.928;2023-04-25T02:56:59;14.02;;;4.65;;
66946;SDS011;53853;51.982;5.928;2023-04-25T02:59:34;12.20;;;4.05;;
66946;SDS011;53853;51.982;5.928;2023-04-25T03:02:04;11.77;;;3.30;;
66946;SDS011;53853;51.982;5.928;2023-04-25T03:04:34;11.88;;;4.25;;
66946;SDS011;53853;51.982;5.928;2023-04-25T03:07:04;12.23;;;3.65;;
66946;SDS011;53853;51.982;5.928;2023-04-25T03:09:36;10.88;;;3.22;;
66946;SDS011;53853;51.982;5.928;2023-04-25T03:12:07;12.13;;;4.03;;
66946;SDS011;53853;51.982;5.928;2023-04-25T03:14:37;9.50;;;3.88;;
66946;SDS011;53853;51.982;5.928;2023-04-25T03:17:07;17.13;;;4.45;;
66946;SDS011;53853;51.982;5.928;2023-04-25T03:19:37;10.35;;;3.67;;
66946;SDS011;53853;51.982;5.928;2023-04-25T03:22:07;11.32;;;4.18;;
66946;SDS011;53853;51.982;5.928;2023-04-25T03:24:39;16.10;;;4.50;;
66946;SDS011;53853;51.982;5.928;2023-04-25T03:27:09;7.10;;;2.90;;
66946;SDS011;53853;51.982;5.928;2023-04-25T03:29:39;7.80;;;2.95;;
66946;SDS011;53853;51.982;5.928;2023-04-25T03:32:09;8.32;;;3.38;;
66946;SDS011;53853;51.982;5.928;2023-04-25T03:34:39;9.07;;;3.42;;
66946;SDS011;53853;51.982;5.928;2023-04-25T03:37:09;10.95;;;3.60;;
66946;SDS011;53853;51.982;5.928;2023-04-25T03:39:42;13.68;;;5.35;;
66946;SDS011;53853;51.982;5.928;2023-04-25T03:42:12;10.38;;;3.72;;
66946;SDS011;53853;51.982;5.928;2023-04-25T03:44:44;11.77;;;3.83;;
66946;SDS011;53853;51.982;5.928;2023-04-25T03:47:14;14.15;;;4.43;;
66946;SDS011;53853;51.982;5.928;2023-04-25T03:49:44;16.58;;;4.60;;
66946;SDS011;53853;51.982;5.928;2023-04-25T03:52:15;13.35;;;4.53;;
66946;SDS011;53853;51.982;5.928;2023-04-25T03:54:49;9.48;;;3.78;;
66946;SDS011;53853;51.982;5.928;2023-04-25T03:57:21;15.80;;;4.55;;
66946;SDS011;53853;51.982;5.928;2023-04-25T03:59:52;7.85;;;3.50;;
66946;SDS011;53853;51.982;5.928;2023-04-25T04:02:22;16.75;;;5.20;;
66946;SDS011;53853;51.982;5.928;2023-04-25T04:04:53;12.07;;;4.35;;
66946;SDS011;53853;51.982;5.928;2023-04-25T04:07:23;8.73;;;3.65;;
66946;SDS011;53853;51.982;5.928;2023-04-25T04:09:58;9.27;;;3.08;;
66946;SDS011;53853;51.982;5.928;2023-04-25T04:12:35;11.13;;;4.15;;
66946;SDS011;53853;51.982;5.928;2023-04-25T04:15:05;9.48;;;3.40;;
66946;SDS011;53853;51.982;5.928;2023-04-25T04:17:36;13.20;;;4.75;;
66946;SDS011;53853;51.982;5.928;2023-04-25T04:20:07;13.93;;;5.47;;
66946;SDS011;53853;51.982;5.928;2023-04-25T04:22:39;11.13;;;4.53;;
66946;SDS011;53853;51.982;5.928;2023-04-25T04:25:14;13.75;;;4.68;;
66946;SDS011;53853;51.982;5.928;2023-04-25T04:28:05;10.48;;;4.32;;
66946;SDS011;53853;51.982;5.928;2023-04-25T04:30:59;5.47;;;3.28;;
66946;SDS011;53853;51.982;5.928;2023-04-25T04:33:29;13.93;;;4.22;;
66946;SDS011;53853;51.982;5.928;2023-04-25T04:36:03;13.07;;;4.90;;
66946;SDS011;53853;51.982;5.928;2023-04-25T04:38:33;11.93;;;4.47;;
66946;SDS011;53853;51.982;5.928;2023-04-25T04:41:07;12.23;;;4.32;;
66946;SDS011;53853;51.982;5.928;2023-04-25T04:43:48;8.15;;;2.95;;
66946;SDS011;53853;51.982;5.928;2023-04-25T04:46:41;15.48;;;4.22;;
66946;SDS011;53853;51.982;5.928;2023-04-25T04:49:32;14.70;;;4.25;;
66946;SDS011;53853;51.982;5.928;2023-04-25T04:52:20;11.65;;;4.65;;
66946;SDS011;53853;51.982;5.928;2023-04-25T04:55:01;11.13;;;3.67;;
66946;SDS011;53853;51.982;5.928;2023-04-25T04:57:53;10.80;;;4.45;;
66946;SDS011;53853;51.982;5.928;2023-04-25T05:00:38;10.32;;;3.90;;
66946;SDS011;53853;51.982;5.928;2023-04-25T05:03:47;11.95;;;3.90;;
66946;SDS011;53853;51.982;5.928;2023-04-25T05:06:40;15.30;;;4.70;;
66946;SDS011;53853;51.982;5.928;2023-04-25T05:09:29;10.82;;;4.15;;
66946;SDS011;53853;51.982;5.928;2023-04-25T05:12:06;13.95;;;4.32;;
66946;SDS011;53853;51.982;5.928;2023-04-25T05:17:54;14.30;;;3.58;;
66946;SDS011;53853;51.982;5.928;2023-04-25T05:20:31;13.45;;;4.63;;
66946;SDS011;53853;51.982;5.928;2023-04-25T05:23:18;11.95;;;5.03;;
66946;SDS011;53853;51.982;5.928;2023-04-25T05:26:02;11.80;;;4.38;;
66946;SDS011;53853;51.982;5.928;2023-04-25T05:28:52;11.93;;;4.43;;
66946;SDS011;53853;51.982;5.928;2023-04-25T05:31:47;9.45;;;3.85;;
66946;SDS011;53853;51.982;5.928;2023-04-25T05:34:18;12.07;;;4.10;;
66946;SDS011;53853;51.982;5.928;2023-04-25T05:37:00;6.43;;;3.03;;
66946;SDS011;53853;51.982;5.928;2023-04-25T05:39:31;12.48;;;3.30;;
66946;SDS011;53853;51.982;5.928;2023-04-25T05:42:27;10.43;;;3.65;;
66946;SDS011;53853;51.982;5.928;2023-04-25T05:45:06;10.13;;;4.72;;
66946;SDS011;53853;51.982;5.928;2023-04-25T05:48:04;5.57;;;3.22;;
66946;SDS011;53853;51.982;5.928;2023-04-25T05:50:49;11.85;;;4.13;;
66946;SDS011;53853;51.982;5.928;2023-04-25T05:53:52;15.00;;;4.00;;
66946;SDS011;53853;51.982;5.928;2023-04-25T05:56:22;10.52;;;4.43;;
66946;SDS011;53853;51.982;5.928;2023-04-25T05:58:53;8.73;;;4.05;;
66946;SDS011;53853;51.982;5.928;2023-04-25T06:01:23;12.25;;;4.00;;
66946;SDS011;53853;51.982;5.928;2023-04-25T06:03:56;11.52;;;4.05;;
66946;SDS011;53853;51.982;5.928;2023-04-25T06:06:26;13.02;;;4.63;;
66946;SDS011;53853;51.982;5.928;2023-04-25T06:08:58;7.55;;;3.80;;
66946;SDS011;53853;51.982;5.928;2023-04-25T06:11:30;12.40;;;4.38;;
66946;SDS011;53853;51.982;5.928;2023-04-25T06:14:00;6.78;;;3.95;;
66946;SDS011;53853;51.982;5.928;2023-04-25T06:16:33;11.23;;;3.97;;
66946;SDS011;53853;51.982;5.928;2023-04-25T06:19:05;8.15;;;3.85;;
66946;SDS011;53853;51.982;5.928;2023-04-25T06:21:35;10.07;;;3.95;;
66946;SDS011;53853;51.982;5.928;2023-04-25T06:24:05;12.10;;;4.28;;
66946;SDS011;53853;51.982;5.928;2023-04-25T06:26:35;8.30;;;3.88;;
66946;SDS011;53853;51.982;5.928;2023-04-25T06:29:05;5.97;;;3.50;;
66946;SDS011;53853;51.982;5.928;2023-04-25T06:31:35;8.68;;;3.80;;
66946;SDS011;53853;51.982;5.928;2023-04-25T06:34:08;9.07;;;2.90;;
66946;SDS011;53853;51.982;5.928;2023-04-25T06:36:40;6.57;;;3.13;;
66946;SDS011;53853;51.982;5.928;2023-04-25T06:39:13;7.03;;;2.80;;
66946;SDS011;53853;51.982;5.928;2023-04-25T06:41:43;10.65;;;3.53;;
66946;SDS011;53853;51.982;5.928;2023-04-25T06:44:31;11.20;;;4.22;;
66946;SDS011;53853;51.982;5.928;2023-04-25T06:47:03;13.35;;;4.50;;
66946;SDS011;53853;51.982;5.928;2023-04-25T06:49:35;9.85;;;3.10;;
66946;SDS011;53853;51.982;5.928;2023-04-25T06:52:05;9.82;;;2.88;;
66946;SDS011;53853;51.982;5.928;2023-04-25T06:54:37;8.15;;;3.03;;
66946;SDS011;53853;51.982;5.928;2023-04-25T06:57:18;8.32;;;3.25;;
66946;SDS011;53853;51.982;5.928;2023-04-25T06:59:48;13.60;;;3.78;;
66946;SDS011;53853;51.982;5.928;2023-04-25T07:02:18;8.60;;;3.30;;
66946;SDS011;53853;51.982;5.928;2023-04-25T07:04:53;10.95;;;3.10;;
66946;SDS011;53853;51.982;5.928;2023-04-25T07:07:26;9.38;;;2.72;;
66946;SDS011;53853;51.982;5.928;2023-04-25T07:09:57;8.25;;;2.67;;
66946;SDS011;53853;51.982;5.928;2023-04-25T07:12:27;7.72;;;3.00;;
66946;SDS011;53853;51.982;5.928;2023-04-25T07:14:57;8.90;;;3.88;;
66946;SDS011;53853;51.982;5.928;2023-04-25T07:17:31;6.80;;;2.65;;
66946;SDS011;53853;51.982;5.928;2023-04-25T07:20:05;12.55;;;3.45;;
66946;SDS011;53853;51.982;5.928;2023-04-25T07:22:36;12.55;;;4.15;;
66946;SDS011;53853;51.982;5.928;2023-04-25T07:25:07;9.57;;;3.63;;
66946;SDS011;53853;51.982;5.928;2023-04-25T07:27:37;8.25;;;3.22;;
66946;SDS011;53853;51.982;5.928;2023-04-25T07:30:18;7.13;;;2.42;;
66946;SDS011;53853;51.982;5.928;2023-04-25T07:32:48;9.48;;;3.63;;
66946;SDS011;53853;51.982;5.928;2023-04-25T07:35:21;9.05;;;2.95;;
66946;SDS011;53853;51.982;5.928;2023-04-25T07:37:51;7.85;;;4.03;;
66946;SDS011;53853;51.982;5.928;2023-04-25T07:40:21;8.63;;;3.13;;
66946;SDS011;53853;51.982;5.928;2023-04-25T07:42:56;8.23;;;2.65;;
66946;SDS011;53853;51.982;5.928;2023-04-25T07:45:33;8.90;;;2.88;;
66946;SDS011;53853;51.982;5.928;2023-04-25T07:48:03;11.88;;;3.10;;
66946;SDS011;53853;51.982;5.928;2023-04-25T07:50:39;8.87;;;2.83;;
66946;SDS011;53853;51.982;5.928;2023-04-25T07:53:09;8.50;;;3.63;;
66946;SDS011;53853;51.982;5.928;2023-04-25T07:55:46;10.60;;;2.88;;
66946;SDS011;53853;51.982;5.928;2023-04-25T07:58:17;7.30;;;2.22;;
66946;SDS011;53853;51.982;5.928;2023-04-25T08:00:50;10.57;;;2.47;;
66946;SDS011;53853;51.982;5.928;2023-04-25T08:03:45;11.20;;;3.65;;
66946;SDS011;53853;51.982;5.928;2023-04-25T08:06:25;8.68;;;2.53;;
66946;SDS011;53853;51.982;5.928;2023-04-25T08:09:03;9.63;;;3.15;;
66946;SDS011;53853;51.982;5.928;2023-04-25T08:14:11;7.80;;;2.53;;
66946;SDS011;53853;51.982;5.928;2023-04-25T08:16:43;9.57;;;2.45;;
66946;SDS011;53853;51.982;5.928;2023-04-25T08:19:13;9.70;;;2.72;;
66946;SDS011;53853;51.982;5.928;2023-04-25T08:21:47;7.55;;;2.08;;
66946;SDS011;53853;51.982;5.928;2023-04-25T08:24:21;8.93;;;2.35;;
66946;SDS011;53853;51.982;5.928;2023-04-25T08:26:51;9.80;;;4.32;;
66946;SDS011;53853;51.982;5.928;2023-04-25T08:29:24;6.18;;;1.88;;
66946;SDS011;53853;51.982;5.928;2023-04-25T08:31:54;8.73;;;2.00;;
66946;SDS011;53853;51.982;5.928;2023-04-25T08:34:24;5.88;;;2.17;;
66946;SDS011;53853;51.982;5.928;2023-04-25T08:36:57;6.80;;;1.85;;
66946;SDS011;53853;51.982;5.928;2023-04-25T08:39:53;5.20;;;1.98;;
66946;SDS011;53853;51.982;5.928;2023-04-25T08:42:35;5.78;;;1.73;;
66946;SDS011;53853;51.982;5.928;2023-04-25T08:45:08;5.30;;;2.42;;
66946;SDS011;53853;51.982;5.928;2023-04-25T08:47:41;9.65;;;2.20;;
66946;SDS011;53853;51.982;5.928;2023-04-25T08:50:14;6.70;;;2.58;;
66946;SDS011;53853;51.982;5.928;2023-04-25T08:52:50;7.57;;;2.28;;
66946;SDS011;53853;51.982;5.928;2023-04-25T08:55:21;7.72;;;2.40;;
66946;SDS011;53853;51.982;5.928;2023-04-25T08:57:56;9.73;;;2.15;;
66946;SDS011;53853;51.982;5.928;2023-04-25T09:00:28;9.40;;;2.33;;
66946;SDS011;53853;51.982;5.928;2023-04-25T09:02:59;10.00;;;2.35;;
66946;SDS011;53853;51.982;5.928;2023-04-25T09:05:32;9.32;;;1.88;;
66946;SDS011;53853;51.982;5.928;2023-04-25T09:08:05;6.55;;;2.00;;
66946;SDS011;53853;51.982;5.928;2023-04-25T09:10:35;6.40;;;2.67;;
66946;SDS011;53853;51.982;5.928;2023-04-25T09:13:06;7.10;;;1.77;;
66946;SDS011;53853;51.982;5.928;2023-04-25T09:15:58;8.38;;;2.15;;
66946;SDS011;53853;51.982;5.928;2023-04-25T09:18:39;5.05;;;1.70;;
66946;SDS011;53853;51.982;5.928;2023-04-25T09:21:10;4.78;;;1.70;;
66946;SDS011;53853;51.982;5.928;2023-04-25T09:23:47;4.57;;;2.05;;
66946;SDS011;53853;51.982;5.928;2023-04-25T09:26:19;5.20;;;1.60;;
66946;SDS011;53853;51.982;5.928;2023-04-25T09:28:50;7.13;;;2.13;;
66946;SDS011;53853;51.982;5.928;2023-04-25T09:31:39;3.75;;;1.65;;
66946;SDS011;53853;51.982;5.928;2023-04-25T09:34:10;8.00;;;2.53;;
66946;SDS011;53853;51.982;5.928;2023-04-25T09:36:47;9.43;;;2.20;;
66946;SDS011;53853;51.982;5.928;2023-04-25T09:39:40;5.88;;;2.03;;
66946;SDS011;53853;51.982;5.928;2023-04-25T09:42:14;5.15;;;1.33;;
66946;SDS011;53853;51.982;5.928;2023-04-25T09:44:45;4.93;;;1.88;;
66946;SDS011;53853;51.982;5.928;2023-04-25T09:47:15;4.88;;;1.80;;
66946;SDS011;53853;51.982;5.928;2023-04-25T09:49:48;5.65;;;2.15;;
66946;SDS011;53853;51.982;5.928;2023-04-25T09:52:21;9.32;;;2.78;;
66946;SDS011;53853;51.982;5.928;2023-04-25T09:55:17;5.53;;;1.85;;
66946;SDS011;53853;51.982;5.928;2023-04-25T09:57:48;6.80;;;1.88;;
66946;SDS011;53853;51.982;5.928;2023-04-25T10:00:23;6.03;;;2.10;;
66946;SDS011;53853;51.982;5.928;2023-04-25T10:02:53;7.75;;;1.83;;
66946;SDS011;53853;51.982;5.928;2023-04-25T10:05:45;5.40;;;1.90;;
66946;SDS011;53853;51.982;5.928;2023-04-25T10:08:18;8.57;;;2.03;;
66946;SDS011;53853;51.982;5.928;2023-04-25T10:10:52;7.53;;;2.15;;
66946;SDS011;53853;51.982;5.928;2023-04-25T10:13:21;5.25;;;1.55;;
66946;SDS011;53853;51.982;5.928;2023-04-25T10:15:52;7.55;;;2.00;;
66946;SDS011;53853;51.982;5.928;2023-04-25T10:18:23;8.15;;;2.53;;
66946;SDS011;53853;51.982;5.928;2023-04-25T10:20:55;6.38;;;1.50;;
66946;SDS011;53853;51.982;5.928;2023-04-25T10:23:27;5.82;;;1.88;;
66946;SDS011;53853;51.982;5.928;2023-04-25T10:26:02;4.75;;;1.58;;
66946;SDS011;53853;51.982;5.928;2023-04-25T10:31:27;5.95;;;1.60;;
66946;SDS011;53853;51.982;5.928;2023-04-25T10:33:59;8.27;;;2.00;;
66946;SDS011;53853;51.982;5.928;2023-04-25T10:36:30;5.00;;;1.58;;
66946;SDS011;53853;51.982;5.928;2023-04-25T10:39:03;5.38;;;1.75;;
66946;SDS011;53853;51.982;5.928;2023-04-25T10:41:51;5.93;;;2.03;;
66946;SDS011;53853;51.982;5.928;2023-04-25T10:44:26;5.93;;;1.55;;
66946;SDS011;53853;51.982;5.928;2023-04-25T10:46:57;7.43;;;1.80;;
66946;SDS011;53853;51.982;5.928;2023-04-25T10:49:32;9.20;;;2.83;;
66946;SDS011;53853;51.982;5.928;2023-04-25T10:54:43;5.20;;;1.85;;
66946;SDS011;53853;51.982;5.928;2023-04-25T10:57:36;6.70;;;2.20;;
66946;SDS011;53853;51.982;5.928;2023-04-25T11:00:08;5.30;;;1.95;;
66946;SDS011;53853;51.982;5.928;2023-04-25T11:02:41;7.35;;;2.65;;
66946;SDS011;53853;51.982;5.928;2023-04-25T11:05:20;5.60;;;2.20;;
66946;SDS011;53853;51.982;5.928;2023-04-25T11:07:58;5.22;;;1.60;;
66946;SDS011;53853;51.982;5.928;2023-04-25T11:10:29;7.93;;;1.88;;
66946;SDS011;53853;51.982;5.928;2023-04-25T11:13:03;6.72;;;1.90;;
66946;SDS011;53853;51.982;5.928;2023-04-25T11:15:33;7.15;;;1.85;;
66946;SDS011;53853;51.982;5.928;2023-04-25T11:18:03;4.03;;;1.92;;
66946;SDS011;53853;51.982;5.928;2023-04-25T11:20:33;7.68;;;2.05;;
66946;SDS011;53853;51.982;5.928;2023-04-25T11:23:04;6.50;;;2.88;;
66946;SDS011;53853;51.982;5.928;2023-04-25T11:25:33;4.18;;;1.52;;
66946;SDS011;53853;51.982;5.928;2023-04-25T11:28:07;4.30;;;1.83;;
66946;SDS011;53853;51.982;5.928;2023-04-25T11:30:37;6.68;;;1.95;;
66946;SDS011;53853;51.982;5.928;2023-04-25T11:33:09;3.80;;;1.75;;
66946;SDS011;53853;51.982;5.928;2023-04-25T11:35:40;4.70;;;1.65;;
66946;SDS011;53853;51.982;5.928;2023-04-25T11:38:10;6.40;;;1.92;;
66946;SDS011;53853;51.982;5.928;2023-04-25T11:40:39;4.72;;;1.48;;
66946;SDS011;53853;51.982;5.928;2023-04-25T11:43:12;3.92;;;2.03;;
66946;SDS011;53853;51.982;5.928;2023-04-25T11:45:45;5.05;;;1.40;;
66946;SDS011;53853;51.982;5.928;2023-04-25T11:50:46;7.15;;;1.65;;
66946;SDS011;53853;51.982;5.928;2023-04-25T11:53:17;7.10;;;1.83;;
66946;SDS011;53853;51.982;5.928;2023-04-25T11:55:47;6.57;;;1.60;;
66946;SDS011;53853;51.982;5.928;2023-04-25T11:58:19;2.40;;;1.38;;
66946;SDS011;53853;51.982;5.928;2023-04-25T12:00:49;4.95;;;1.73;;
66946;SDS011;53853;51.982;5.928;2023-04-25T12:03:19;3.65;;;1.98;;
66946;SDS011;53853;51.982;5.928;2023-04-25T12:05:51;5.28;;;1.70;;
66946;SDS011;53853;51.982;5.928;2023-04-25T12:08:21;5.80;;;1.58;;
66946;SDS011;53853;51.982;5.928;2023-04-25T12:10:51;3.90;;;1.33;;
66946;SDS011;53853;51.982;5.928;2023-04-25T12:13:24;4.70;;;1.60;;
66946;SDS011;53853;51.982;5.928;2023-04-25T12:18:25;5.32;;;2.65;;
66946;SDS011;53853;51.982;5.928;2023-04-25T12:20:56;6.15;;;2.00;;
66946;SDS011;53853;51.982;5.928;2023-04-25T12:23:26;7.75;;;2.10;;
66946;SDS011;53853;51.982;5.928;2023-04-25T12:25:57;9.25;;;1.77;;
66946;SDS011;53853;51.982;5.928;2023-04-25T12:28:31;4.60;;;1.50;;
66946;SDS011;53853;51.982;5.928;2023-04-25T12:31:02;6.90;;;1.77;;
66946;SDS011;53853;51.982;5.928;2023-04-25T12:33:33;4.40;;;1.80;;
66946;SDS011;53853;51.982;5.928;2023-04-25T12:36:05;4.57;;;1.75;;
66946;SDS011;53853;51.982;5.928;2023-04-25T12:38:39;6.70;;;1.98;;
66946;SDS011;53853;51.982;5.928;2023-04-25T12:41:09;3.45;;;1.23;;
66946;SDS011;53853;51.982;5.928;2023-04-25T12:43:42;2.92;;;1.33;;
66946;SDS011;53853;51.982;5.928;2023-04-25T12:46:12;5.85;;;1.95;;
66946;SDS011;53853;51.982;5.928;2023-04-25T12:48:42;5.80;;;1.80;;
66946;SDS011;53853;51.982;5.928;2023-04-25T12:51:11;5.90;;;1.73;;
66946;SDS011;53853;51.982;5.928;2023-04-25T12:53:41;6.28;;;1.95;;
66946;SDS011;53853;51.982;5.928;2023-04-25T12:56:11;6.15;;;1.88;;
66946;SDS011;53853;51.982;5.928;2023-04-25T12:58:44;4.93;;;1.85;;
66946;SDS011;53853;51.982;5.928;2023-04-25T13:01:14;4.75;;;2.60;;
66946;SDS011;53853;51.982;5.928;2023-04-25T13:03:43;6.00;;;2.10;;
66946;SDS011;53853;51.982;5.928;2023-04-25T13:06:14;5.38;;;1.58;;
66946;SDS011;53853;51.982;5.928;2023-04-25T13:08:44;3.42;;;1.63;;
66946;SDS011;53853;51.982;5.928;2023-04-25T13:11:14;9.77;;;2.63;;
66946;SDS011;53853;51.982;5.928;2023-04-25T13:13:46;4.32;;;2.00;;
66946;SDS011;53853;51.982;5.928;2023-04-25T13:16:16;3.50;;;1.75;;
66946;SDS011;53853;51.982;5.928;2023-04-25T13:18:47;4.47;;;1.77;;
66946;SDS011;53853;51.982;5.928;2023-04-25T13:21:16;5.07;;;1.73;;
66946;SDS011;53853;51.982;5.928;2023-04-25T13:23:46;5.82;;;2.10;;
66946;SDS011;53853;51.982;5.928;2023-04-25T13:26:16;9.10;;;2.58;;
66946;SDS011;53853;51.982;5.928;2023-04-25T13:28:49;4.47;;;1.70;;
66946;SDS011;53853;51.982;5.928;2023-04-25T13:31:18;4.40;;;1.23;;
66946;SDS011;53853;51.982;5.928;2023-04-25T13:33:48;3.42;;;1.40;;
66946;SDS011;53853;51.982;5.928;2023-04-25T13:36:18;4.07;;;1.55;;
66946;SDS011;53853;51.982;5.928;2023-04-25T13:38:48;7.40;;;1.63;;
66946;SDS011;53853;51.982;5.928;2023-04-25T13:41:18;4.95;;;2.05;;
66946;SDS011;53853;51.982;5.928;2023-04-25T13:43:50;4.05;;;1.73;;
66946;SDS011;53853;51.982;5.928;2023-04-25T13:46:20;4.28;;;1.75;;
66946;SDS011;53853;51.982;5.928;2023-04-25T13:48:50;4.50;;;1.88;;
66946;SDS011;53853;51.982;5.928;2023-04-25T13:51:20;5.30;;;1.58;;
66946;SDS011;53853;51.982;5.928;2023-04-25T13:53:50;3.33;;;1.55;;
66946;SDS011;53853;51.982;5.928;2023-04-25T13:56:20;5.53;;;1.65;;
66946;SDS011;53853;51.982;5.928;2023-04-25T13:58:52;4.07;;;2.05;;
66946;SDS011;53853;51.982;5.928;2023-04-25T14:01:22;5.07;;;1.80;;
66946;SDS011;53853;51.982;5.928;2023-04-25T14:03:53;3.70;;;1.65;;
66946;SDS011;53853;51.982;5.928;2023-04-25T14:06:23;4.75;;;1.90;;
66946;SDS011;53853;51.982;5.928;2023-04-25T14:08:53;2.97;;;1.23;;
66946;SDS011;53853;51.982;5.928;2023-04-25T14:11:23;5.28;;;1.58;;
66946;SDS011;53853;51.982;5.928;2023-04-25T14:13:55;4.40;;;1.70;;
66946;SDS011;53853;51.982;5.928;2023-04-25T14:16:25;4.35;;;1.10;;
66946;SDS011;53853;51.982;5.928;2023-04-25T14:18:55;5.07;;;2.05;;
66946;SDS011;53853;51.982;5.928;2023-04-25T14:21:26;7.78;;;2.13;;
66946;SDS011;53853;51.982;5.928;2023-04-25T14:23:57;5.07;;;1.63;;
66946;SDS011;53853;51.982;5.928;2023-04-25T14:26:27;5.28;;;1.50;;
66946;SDS011;53853;51.982;5.928;2023-04-25T14:28:59;3.85;;;1.42;;
66946;SDS011;53853;51.982;5.928;2023-04-25T14:31:29;7.40;;;2.13;;
66946;SDS011;53853;51.982;5.928;2023-04-25T14:33:59;6.35;;;2.03;;
66946;SDS011;53853;51.982;5.928;2023-04-25T14:36:30;6.40;;;1.80;;
66946;SDS011;53853;51.982;5.928;2023-04-25T14:39:00;6.07;;;2.15;;
66946;SDS011;53853;51.982;5.928;2023-04-25T14:41:30;4.85;;;1.65;;
66946;SDS011;53853;51.982;5.928;2023-04-25T14:44:03;3.85;;;1.42;;
66946;SDS011;53853;51.982;5.928;2023-04-25T14:46:34;2.90;;;1.23;;
66946;SDS011;53853;51.982;5.928;2023-04-25T14:49:04;3.92;;;1.40;;
66946;SDS011;53853;51.982;5.928;2023-04-25T14:51:34;5.45;;;1.48;;
66946;SDS011;53853;51.982;5.928;2023-04-25T14:54:04;5.35;;;1.38;;
66946;SDS011;53853;51.982;5.928;2023-04-25T14:56:34;7.80;;;2.28;;
66946;SDS011;53853;51.982;5.928;2023-04-25T14:59:06;6.22;;;1.67;;
66946;SDS011;53853;51.982;5.928;2023-04-25T15:01:36;5.55;;;1.90;;
66946;SDS011;53853;51.982;5.928;2023-04-25T15:04:06;5.50;;;1.95;;
66946;SDS011;53853;51.982;5.928;2023-04-25T15:06:36;4.32;;;2.10;;
66946;SDS011;53853;51.982;5.928;2023-04-25T15:09:06;4.75;;;2.03;;
66946;SDS011;53853;51.982;5.928;2023-04-25T15:11:36;3.88;;;1.63;;
66946;SDS011;53853;51.982;5.928;2023-04-25T15:14:09;3.78;;;1.50;;
66946;SDS011;53853;51.982;5.928;2023-04-25T15:16:39;3.47;;;1.25;;
66946;SDS011;53853;51.982;5.928;2023-04-25T15:19:09;4.25;;;1.40;;
66946;SDS011;53853;51.982;5.928;2023-04-25T15:21:39;2.95;;;1.63;;
66946;SDS011;53853;51.982;5.928;2023-04-25T15:24:09;5.80;;;1.80;;
66946;SDS011;53853;51.982;5.928;2023-04-25T15:26:40;4.03;;;1.90;;
66946;SDS011;53853;51.982;5.928;2023-04-25T15:29:14;6.82;;;1.95;;
66946;SDS011;53853;51.982;5.928;2023-04-25T15:31:43;6.10;;;2.30;;
66946;SDS011;53853;51.982;5.928;2023-04-25T15:34:13;5.40;;;1.75;;
66946;SDS011;53853;51.982;5.928;2023-04-25T15:36:43;7.28;;;1.55;;